Time;durP1;ratioP1;P1;durP2;ratioP2;P2;SDS_P1;SDS_P2;PMS_P1;PMS_P2;Temp;Humidity;BMP_temperature;BMP_pressure;BME280_temperature;BME280_humidity;BME280_pressure;Samples;Min_cycle;Max_cycle;Signal;HPM_P1;HPM_P2
2022/06/26 05:10:04;;;;;;;2.95;1.50;;;20.80;93.10;;;;;;4945152;29;20034;-81
2022/06/26 05:12:38;;;;;;;3.10;1.52;;;20.80;93.20;;;;;;4924114;29;20028;-82
2022/06/26 05:15:12;;;;;;;4.38;1.75;;;20.80;93.10;;;;;;4897085;29;20107;-81
2022/06/26 05:17:42;;;;;;;4.10;1.60;;;20.80;93.20;;;;;;4896782;29;20020;-82
2022/06/26 05:20:08;;;;;;;2.90;1.60;;;20.80;93.10;;;;;;4889272;29;20037;-79
2022/06/26 05:22:34;;;;;;;4.30;1.70;;;20.80;93.20;;;;;;4873829;29;20327;-79
2022/06/26 05:25:00;;;;;;;2.63;1.88;;;20.90;93.20;;;;;;4874244;29;20060;-80
2022/06/26 05:27:26;;;;;;;2.42;1.38;;;20.90;93.20;;;;;;4873269;29;20041;-80
2022/06/26 05:29:52;;;;;;;3.50;1.90;;;20.90;93.10;;;;;;4858535;29;20128;-81
2022/06/26 05:32:17;;;;;;;3.75;1.77;;;21.10;93.10;;;;;;4886967;29;20089;-80
2022/06/26 05:34:43;;;;;;;3.20;1.40;;;21.10;93.00;;;;;;4889603;29;20124;-80
2022/06/26 05:37:09;;;;;;;3.08;1.30;;;21.20;92.50;;;;;;4889673;29;20029;-80
2022/06/26 05:39:37;;;;;;;2.10;1.20;;;21.30;92.40;;;;;;4872889;29;20111;-79
2022/06/26 05:42:03;;;;;;;2.72;0.73;;;21.30;91.90;;;;;;4873238;29;20028;-81
2022/06/26 05:44:30;;;;;;;2.95;1.70;;;21.40;90.60;;;;;;4862250;29;20029;-81
2022/06/26 05:46:56;;;;;;;1.95;0.70;;;21.40;90.10;;;;;;4881659;29;20045;-80
2022/06/26 05:49:41;;;;;;;1.55;0.80;;;21.40;89.60;;;;;;4887486;29;20353;-83
2022/06/26 05:52:20;;;;;;;1.90;0.75;;;21.40;89.90;;;;;;4926996;29;20042;-81
2022/06/26 05:55:06;;;;;;;2.05;0.90;;;21.40;90.10;;;;;;4925148;29;20041;-84
2022/06/26 05:57:58;;;;;;;2.05;0.82;;;21.30;89.90;;;;;;4901437;29;20042;-79
2022/06/26 06:00:50;;;;;;;2.05;0.80;;;21.10;89.70;;;;;;4931614;29;20063;-82
2022/06/26 06:03:19;;;;;;;2.10;0.80;;;21.10;90.20;;;;;;4913263;29;20044;-80
2022/06/26 06:05:51;;;;;;;2.65;0.90;;;21.00;90.50;;;;;;4910803;29;20031;-82
2022/06/26 06:08:17;;;;;;;2.00;1.40;;;20.90;91.00;;;;;;4904451;29;20251;-81
2022/06/26 06:10:43;;;;;;;2.90;1.08;;;20.90;92.30;;;;;;4909018;29;20137;-81
2022/06/26 06:13:09;;;;;;;3.38;1.40;;;20.80;92.70;;;;;;4891990;29;20036;-81
2022/06/26 06:15:35;;;;;;;3.20;1.35;;;20.80;93.10;;;;;;4902174;29;20155;-79
2022/06/26 06:18:00;;;;;;;3.17;1.90;;;20.90;93.10;;;;;;4911016;29;20073;-82
2022/06/26 06:20:26;;;;;;;3.42;2.10;;;21.10;92.70;;;;;;4911067;29;20028;-81
2022/06/26 06:23:04;;;;;;;2.50;1.50;;;21.30;92.20;;;;;;4910902;29;20044;-81
2022/06/26 06:25:30;;;;;;;4.33;1.33;;;21.40;92.50;;;;;;4894815;29;20032;-79
2022/06/26 06:28:00;;;;;;;2.30;1.40;;;21.40;92.20;;;;;;4928325;29;20020;-79
2022/06/26 06:30:29;;;;;;;2.78;1.20;;;21.40;92.00;;;;;;4910320;29;20317;-78
2022/06/26 06:32:56;;;;;;;2.97;1.45;;;21.60;92.00;;;;;;4909079;29;20218;-78
2022/06/26 06:35:37;;;;;;;2.97;1.55;;;21.70;92.00;;;;;;4906380;29;20331;-78
2022/06/26 06:38:04;;;;;;;3.15;1.50;;;21.80;92.00;;;;;;4895063;29;20032;-78
2022/06/26 06:40:31;;;;;;;2.70;1.63;;;21.90;91.90;;;;;;4910170;29;20040;-79
2022/06/26 06:43:00;;;;;;;2.30;1.60;;;22.00;91.80;;;;;;4910595;29;20111;-80
2022/06/26 06:45:28;;;;;;;2.60;1.73;;;22.20;91.60;;;;;;4910055;29;20116;-82
2022/06/26 06:47:56;;;;;;;3.22;1.40;;;22.20;91.40;;;;;;4910122;29;20024;-80
2022/06/26 06:50:37;;;;;;;4.53;1.50;;;22.40;91.00;;;;;;4927078;29;20036;-80
2022/06/26 06:53:03;;;;;;;3.90;1.60;;;22.50;91.10;;;;;;4910154;29;20032;-81
2022/06/26 06:55:29;;;;;;;3.72;1.42;;;22.60;90.50;;;;;;4915358;29;20036;-81
2022/06/26 06:57:57;;;;;;;2.85;1.65;;;22.60;90.10;;;;;;4909278;29;20034;-79
2022/06/26 07:00:23;;;;;;;2.90;1.15;;;22.70;89.90;;;;;;4926840;29;20036;-80
2022/06/26 07:02:50;;;;;;;2.65;1.33;;;22.80;88.50;;;;;;4909332;29;20075;-80
2022/06/26 07:05:19;;;;;;;3.38;1.40;;;23.00;88.60;;;;;;4919607;29;20049;-79
2022/06/26 07:07:48;;;;;;;2.20;1.20;;;23.00;88.10;;;;;;4898200;29;20221;-79
2022/06/26 07:10:14;;;;;;;3.15;1.48;;;23.10;88.10;;;;;;4902467;29;20047;-77
2022/06/26 07:12:49;;;;;;;5.00;1.40;;;23.20;87.30;;;;;;4908367;29;20036;-79
2022/06/26 07:15:15;;;;;;;2.17;1.08;;;23.40;87.00;;;;;;4918088;29;20024;-78
2022/06/26 07:17:41;;;;;;;3.95;1.17;;;23.40;85.30;;;;;;4885752;29;20024;-78
2022/06/26 07:20:09;;;;;;;2.20;1.10;;;23.50;85.60;;;;;;4896418;29;20369;-79
2022/06/26 07:22:35;;;;;;;2.38;1.35;;;23.60;84.50;;;;;;4923830;29;20036;-78
2022/06/26 07:25:10;;;;;;;1.77;0.90;;;23.60;83.20;;;;;;4906967;29;20035;-80
2022/06/26 07:27:54;;;;;;;2.67;1.40;;;23.60;83.20;;;;;;4908427;29;20068;-79
2022/06/26 07:30:19;;;;;;;2.10;1.05;;;23.60;82.70;;;;;;4898958;29;20033;-81
2022/06/26 07:33:02;;;;;;;3.33;0.90;;;23.70;81.00;;;;;;4902369;29;20084;-78
2022/06/26 07:35:29;;;;;;;2.58;1.10;;;23.90;80.80;;;;;;4906744;29;20055;-78
2022/06/26 07:37:55;;;;;;;1.60;1.00;;;23.90;80.80;;;;;;4893395;29;20032;-81
2022/06/26 07:40:21;;;;;;;2.83;1.00;;;24.00;81.00;;;;;;4882827;29;20107;-80
2022/06/26 07:42:47;;;;;;;3.15;1.40;;;24.00;81.00;;;;;;4902806;29;20075;-78
2022/06/26 07:45:14;;;;;;;3.08;1.17;;;24.00;81.40;;;;;;4887294;29;20316;-79
2022/06/26 07:47:51;;;;;;;2.50;1.00;;;24.00;81.30;;;;;;4906500;29;20254;-79
2022/06/26 07:50:17;;;;;;;3.45;1.08;;;24.00;80.80;;;;;;4904278;29;20032;-78
2022/06/26 07:52:43;;;;;;;1.42;0.65;;;24.00;80.00;;;;;;4913677;29;20068;-78
2022/06/26 07:55:08;;;;;;;2.33;0.68;;;24.00;80.10;;;;;;4914075;29;20021;-79
2022/06/26 07:57:34;;;;;;;1.75;0.70;;;24.00;79.40;;;;;;4918780;29;20047;-80
2022/06/26 08:00:00;;;;;;;1.90;0.90;;;24.10;80.00;;;;;;4898837;29;20101;-80
2022/06/26 08:02:28;;;;;;;1.48;0.90;;;24.10;80.00;;;;;;4898618;29;20111;-79
2022/06/26 08:04:54;;;;;;;3.67;1.25;;;24.30;80.00;;;;;;4914076;29;20039;-81
2022/06/26 08:07:19;;;;;;;2.65;0.80;;;24.50;79.00;;;;;;4910306;29;20029;-80
2022/06/26 08:09:45;;;;;;;1.58;0.80;;;24.70;78.60;;;;;;4914342;29;20054;-80
2022/06/26 08:12:11;;;;;;;2.13;0.90;;;24.70;77.90;;;;;;4889076;29;20398;-82
2022/06/26 08:14:37;;;;;;;3.63;0.65;;;24.80;78.00;;;;;;4926689;29;20099;-80
2022/06/26 08:17:03;;;;;;;1.63;0.80;;;24.90;77.90;;;;;;4921611;29;20088;-78
2022/06/26 08:19:29;;;;;;;2.13;0.70;;;24.90;77.90;;;;;;4913371;29;20036;-79
2022/06/26 08:22:04;;;;;;;1.13;0.68;;;24.90;77.70;;;;;;4924384;29;20024;-80
2022/06/26 08:24:31;;;;;;;1.63;0.98;;;25.00;78.50;;;;;;4907914;29;20103;-81
2022/06/26 08:26:57;;;;;;;2.38;0.80;;;25.00;77.70;;;;;;4907588;29;20043;-82
2022/06/26 08:29:23;;;;;;;1.67;0.70;;;25.10;77.90;;;;;;4921150;29;20036;-80
2022/06/26 08:31:49;;;;;;;6.93;0.85;;;25.30;77.40;;;;;;4913387;29;20040;-80
2022/06/26 08:34:15;;;;;;;2.38;0.90;;;25.30;77.50;;;;;;4907806;29;20099;-80
2022/06/26 08:36:41;;;;;;;1.30;0.50;;;25.30;77.50;;;;;;4924303;29;20401;-79
2022/06/26 08:39:08;;;;;;;1.23;0.60;;;25.30;76.80;;;;;;4920523;29;20083;-81
2022/06/26 08:41:39;;;;;;;1.48;0.75;;;25.10;76.50;;;;;;4924526;29;20024;-82
2022/06/26 08:44:06;;;;;;;2.50;0.95;;;25.10;76.20;;;;;;4908040;29;20040;-82
2022/06/26 08:46:44;;;;;;;1.98;0.80;;;25.10;76.70;;;;;;4924415;29;20042;-81
2022/06/26 08:49:12;;;;;;;1.80;0.90;;;25.10;77.10;;;;;;4892823;29;20082;-80
2022/06/26 08:51:47;;;;;;;2.92;0.70;;;25.30;77.40;;;;;;4924222;29;20031;-82
2022/06/26 08:54:13;;;;;;;1.48;0.60;;;25.30;76.70;;;;;;4907941;29;20125;-81
2022/06/26 08:57:00;;;;;;;4.07;1.00;;;25.30;76.50;;;;;;4924001;29;20020;-83
2022/06/26 08:59:27;;;;;;;1.70;0.77;;;25.30;75.70;;;;;;4892203;29;20024;-82
2022/06/26 09:01:54;;;;;;;1.85;0.60;;;25.20;76.10;;;;;;4906723;29;20040;-82
2022/06/26 09:04:19;;;;;;;1.60;0.52;;;25.20;75.80;;;;;;4907969;29;20123;-84
2022/06/26 09:06:45;;;;;;;0.90;0.50;;;25.30;76.30;;;;;;4905311;29;20046;-81
2022/06/26 09:09:18;;;;;;;1.10;0.50;;;25.20;75.30;;;;;;4893599;29;20048;-82
2022/06/26 09:11:45;;;;;;;1.65;0.77;;;25.10;76.20;;;;;;4926943;29;20028;-81
2022/06/26 09:14:12;;;;;;;2.45;0.95;;;25.20;76.60;;;;;;4920926;29;20032;-84
2022/06/26 09:16:48;;;;;;;1.20;0.57;;;25.40;76.80;;;;;;4882261;29;20036;-84
2022/06/26 09:19:18;;;;;;;3.97;1.20;;;25.60;75.60;;;;;;4932612;29;20080;-81
2022/06/26 09:21:46;;;;;;;3.13;0.90;;;25.60;74.60;;;;;;4918370;29;20183;-82
2022/06/26 09:24:14;;;;;;;1.93;0.50;;;25.70;75.80;;;;;;4902983;29;20036;-82
2022/06/26 09:26:44;;;;;;;1.48;0.50;;;25.80;75.20;;;;;;4900351;29;20440;-83
2022/06/26 09:29:15;;;;;;;1.60;0.50;;;25.90;75.00;;;;;;4912868;29;20029;-83
2022/06/26 09:31:42;;;;;;;1.27;0.60;;;26.00;74.60;;;;;;4891395;29;20053;-81
2022/06/26 09:34:20;;;;;;;1.17;0.50;;;26.10;74.10;;;;;;4881872;29;20050;-81
2022/06/26 09:36:59;;;;;;;;;;;26.00;73.50;;;;;;4893142;29;20036;-81
2022/06/26 09:39:25;;;;;;;2.58;0.75;;;25.90;73.20;;;;;;4909697;29;19955;-82
2022/06/26 09:41:51;;;;;;;1.40;0.50;;;25.80;74.10;;;;;;4909523;29;20032;-83
2022/06/26 09:44:21;;;;;;;1.35;0.40;;;25.90;73.70;;;;;;4893187;29;20041;-81
2022/06/26 09:46:48;;;;;;;1.38;0.65;;;25.90;74.40;;;;;;4908832;29;20051;-83
2022/06/26 09:49:14;;;;;;;1.92;0.80;;;26.20;74.80;;;;;;4893304;29;20033;-81
2022/06/26 09:51:49;;;;;;;2.95;0.70;;;26.50;74.10;;;;;;4909654;29;20033;-82
2022/06/26 09:54:18;;;;;;;1.10;0.45;;;26.70;73.60;;;;;;4911051;29;20055;-80
2022/06/26 09:56:44;;;;;;;2.47;0.70;;;26.90;72.40;;;;;;4896391;29;20028;-81
2022/06/26 09:59:11;;;;;;;1.30;0.70;;;27.10;71.90;;;;;;4896052;29;20048;-81
2022/06/26 10:07:07;;;;;;;1.05;0.60;;;27.90;70.00;;;;;;4950544;29;20083;-79
2022/06/26 10:09:34;;;;;;;1.42;0.50;;;28.00;70.30;;;;;;4949447;29;20020;-79
2022/06/26 10:12:04;;;;;;;1.90;0.68;;;28.00;68.90;;;;;;4930126;29;20035;-80
2022/06/26 10:14:42;;;;;;;1.85;0.65;;;28.00;69.30;;;;;;4929912;29;20324;-80
2022/06/26 10:17:38;;;;;;;2.00;0.50;;;28.00;69.90;;;;;;4922507;29;20050;-81
2022/06/26 10:20:09;;;;;;;2.05;0.60;;;27.80;70.00;;;;;;4936291;29;20063;-80
2022/06/26 10:22:39;;;;;;;0.95;0.50;;;27.60;71.20;;;;;;4946031;29;20107;-81
2022/06/26 10:25:05;;;;;;;1.00;0.50;;;27.50;71.50;;;;;;4946146;29;20051;-80
2022/06/26 10:27:33;;;;;;;1.13;0.50;;;27.40;71.00;;;;;;4946646;29;20078;-80
2022/06/26 10:30:27;;;;;;;1.08;0.50;;;27.40;70.00;;;;;;4946065;29;20310;-81
2022/06/26 10:33:07;;;;;;;2.47;0.60;;;27.30;70.10;;;;;;4926473;29;20352;-78
2022/06/26 10:35:57;;;;;;;1.60;0.55;;;27.30;71.10;;;;;;4945860;29;20043;-81
2022/06/26 10:38:27;;;;;;;1.73;0.75;;;27.50;71.20;;;;;;4946955;29;20040;-81
2022/06/26 10:44:04;;;;;;;1.55;0.52;;;27.60;71.20;;;;;;4945733;29;20032;-79
2022/06/26 10:46:37;;;;;;;1.23;0.52;;;27.70;70.00;;;;;;4945636;29;20229;-82
2022/06/26 10:49:08;;;;;;;0.90;0.50;;;27.70;70.10;;;;;;4946070;29;20047;-80
2022/06/26 10:51:37;;;;;;;1.00;0.50;;;27.80;69.40;;;;;;4929388;29;20303;-79
2022/06/26 10:54:03;;;;;;;1.27;0.45;;;27.90;70.00;;;;;;4945851;29;20325;-81
2022/06/26 10:56:29;;;;;;;1.35;0.50;;;28.30;69.30;;;;;;4962382;29;20027;-80
2022/06/26 10:59:00;;;;;;;1.63;0.52;;;28.60;69.40;;;;;;4926844;29;20032;-77
2022/06/26 11:01:27;;;;;;;1.95;0.57;;;29.10;68.40;;;;;;4925256;29;20083;-80
2022/06/26 11:03:53;;;;;;;1.17;0.52;;;29.70;68.10;;;;;;4924177;29;20055;-79
2022/06/26 11:06:24;;;;;;;0.70;0.30;;;30.50;66.70;;;;;;4945914;29;20328;-80
2022/06/26 11:08:56;;;;;;;1.50;0.52;;;31.20;65.40;;;;;;4928802;29;20031;-80
2022/06/26 11:11:33;;;;;;;1.13;0.40;;;31.40;63.10;;;;;;4915422;29;20053;-80
2022/06/26 11:14:08;;;;;;;1.15;0.55;;;31.80;62.60;;;;;;4945100;29;20024;-80
2022/06/26 11:16:42;;;;;;;1.10;0.50;;;31.90;62.50;;;;;;4945192;29;20055;-80
2022/06/26 11:19:31;;;;;;;0.90;0.35;;;31.80;62.10;;;;;;4945263;29;20172;-79
2022/06/26 11:22:05;;;;;;;1.10;0.40;;;31.90;61.20;;;;;;4940619;29;20094;-78
2022/06/26 11:24:30;;;;;;;1.77;0.40;;;31.90;61.50;;;;;;4945511;29;20253;-80
2022/06/26 11:26:56;;;;;;;1.67;0.47;;;31.80;61.50;;;;;;4944882;29;20047;-81
2022/06/26 11:29:23;;;;;;;0.70;0.40;;;31.80;61.10;;;;;;4945620;29;20047;-79
2022/06/26 11:31:50;;;;;;;1.55;0.30;;;31.80;60.90;;;;;;4944585;29;20318;-81
2022/06/26 11:34:16;;;;;;;1.15;0.40;;;32.40;60.80;;;;;;4945566;29;20024;-81
2022/06/26 11:36:54;;;;;;;0.82;0.40;;;32.50;60.50;;;;;;4945482;29;20318;-78
2022/06/26 11:39:20;;;;;;;1.00;0.40;;;32.70;61.60;;;;;;4945417;29;20250;-80
2022/06/26 11:41:46;;;;;;;1.23;0.43;;;32.90;60.90;;;;;;4941982;29;20023;-80
2022/06/26 11:44:12;;;;;;;1.13;0.43;;;32.70;60.20;;;;;;4943844;29;20036;-80
2022/06/26 11:46:38;;;;;;;2.10;0.55;;;32.60;59.80;;;;;;4928124;29;20171;-80
2022/06/26 11:49:04;;;;;;;1.80;0.60;;;32.80;60.00;;;;;;4944234;29;20031;-79
2022/06/26 11:51:33;;;;;;;1.05;0.40;;;33.20;59.20;;;;;;4945507;29;20034;-83
2022/06/26 11:53:59;;;;;;;1.15;0.32;;;33.00;58.90;;;;;;4944484;29;20036;-80
2022/06/26 11:56:27;;;;;;;0.60;0.30;;;33.60;59.30;;;;;;4945402;29;20028;-83
2022/06/26 11:58:53;;;;;;;;;;;34.30;57.90;;;;;;4912579;29;20217;-82
2022/06/26 12:01:20;;;;;;;1.77;0.40;;;35.40;56.50;;;;;;4926841;29;19962;-79
2022/06/26 12:03:52;;;;;;;1.70;0.73;;;36.70;54.50;;;;;;4924040;29;20043;-81
2022/06/26 12:06:39;;;;;;;0.70;0.30;;;37.70;54.00;;;;;;4911360;29;20031;-81
2022/06/26 12:09:21;;;;;;;0.88;0.30;;;38.90;52.40;;;;;;4944499;29;20118;-82
2022/06/26 12:11:55;;;;;;;0.65;0.30;;;38.90;52.30;;;;;;4945033;29;20079;-81
2022/06/26 12:14:25;;;;;;;0.77;0.30;;;39.30;51.70;;;;;;4945171;29;20039;-80
2022/06/26 12:16:54;;;;;;;1.38;0.30;;;39.30;51.60;;;;;;4936041;29;20050;-78
2022/06/26 12:19:21;;;;;;;1.55;0.28;;;38.50;52.20;;;;;;4944701;29;20023;-78
2022/06/26 12:21:50;;;;;;;1.07;0.30;;;38.70;51.70;;;;;;4927437;29;20031;-81
2022/06/26 12:24:17;;;;;;;1.08;0.30;;;39.30;51.20;;;;;;4939874;29;20052;-78
2022/06/26 12:26:43;;;;;;;0.70;0.20;;;39.80;50.50;;;;;;4944713;29;20040;-80
2022/06/26 12:29:15;;;;;;;1.90;0.30;;;39.20;49.50;;;;;;4944422;29;20020;-80
2022/06/26 12:31:42;;;;;;;0.73;0.30;;;40.20;49.60;;;;;;4927348;29;20048;-81
2022/06/26 12:34:08;;;;;;;1.05;0.40;;;40.30;49.50;;;;;;4944648;29;20036;-80
2022/06/26 12:36:35;;;;;;;0.63;0.20;;;41.50;49.30;;;;;;4945151;29;20324;-80
2022/06/26 12:39:02;;;;;;;0.80;0.20;;;41.50;49.10;;;;;;4944317;29;20439;-80
2022/06/26 12:41:28;;;;;;;2.00;0.30;;;41.80;48.70;;;;;;4944656;29;20448;-80
2022/06/26 12:43:56;;;;;;;0.70;0.22;;;41.60;48.40;;;;;;4940911;29;20036;-81
2022/06/26 12:46:22;;;;;;;0.98;0.20;;;41.90;48.00;;;;;;4943014;29;20304;-80
2022/06/26 12:48:48;;;;;;;0.88;0.20;;;41.80;47.70;;;;;;4944869;29;20036;-80
2022/06/26 12:51:15;;;;;;;1.20;0.30;;;42.20;47.20;;;;;;4944039;29;20039;-79
2022/06/26 12:53:41;;;;;;;0.88;0.30;;;42.80;47.10;;;;;;4944673;29;20287;-80
2022/06/26 12:56:09;;;;;;;2.43;0.40;;;43.10;47.00;;;;;;4944644;29;20043;-77
2022/06/26 12:58:34;;;;;;;;;;;43.50;46.30;;;;;;4945874;29;20032;-81
2022/06/26 13:01:02;;;;;;;0.80;0.20;;;43.70;46.30;;;;;;4946842;29;19962;-81
2022/06/26 13:03:28;;;;;;;1.90;0.40;;;43.30;46.30;;;;;;4948335;29;20083;-79
2022/06/26 13:05:53;;;;;;;1.00;0.30;;;44.00;46.30;;;;;;4927229;29;20044;-79
2022/06/26 13:08:19;;;;;;;1.75;0.35;;;44.40;45.80;;;;;;4931101;29;20040;-79
2022/06/26 13:10:46;;;;;;;1.58;0.50;;;45.30;45.40;;;;;;4948421;29;20036;-79
2022/06/26 13:13:12;;;;;;;0.85;0.38;;;44.40;45.40;;;;;;4947652;29;20036;-78
2022/06/26 13:15:38;;;;;;;0.43;0.22;;;45.00;44.80;;;;;;4947592;29;20127;-80
2022/06/26 13:18:04;;;;;;;0.90;0.32;;;44.50;45.00;;;;;;4930589;29;20028;-79
2022/06/26 13:20:30;;;;;;;0.93;0.30;;;44.40;45.00;;;;;;4947586;29;20053;-79
2022/06/26 13:22:56;;;;;;;1.45;0.43;;;44.10;45.50;;;;;;4947254;29;20213;-79
2022/06/26 13:25:22;;;;;;;1.55;0.22;;;44.00;45.80;;;;;;4929039;29;20016;-79
2022/06/26 13:27:48;;;;;;;1.15;0.50;;;44.20;46.10;;;;;;4935153;29;20035;-81
2022/06/26 13:30:14;;;;;;;1.63;0.43;;;45.30;44.80;;;;;;4946591;29;20224;-81
2022/06/26 13:32:39;;;;;;;1.60;0.40;;;45.40;44.80;;;;;;4947828;29;20039;-80
2022/06/26 13:35:06;;;;;;;0.98;0.25;;;45.10;44.30;;;;;;4947137;29;20039;-79
2022/06/26 13:37:32;;;;;;;0.88;0.40;;;44.60;44.90;;;;;;4947052;29;20091;-81
2022/06/26 13:39:58;;;;;;;0.90;0.38;;;45.00;44.80;;;;;;4946695;29;20317;-79
2022/06/26 13:42:23;;;;;;;1.05;0.43;;;45.30;44.70;;;;;;4947296;29;20047;-79
2022/06/26 13:44:49;;;;;;;0.90;0.40;;;44.70;44.70;;;;;;4930137;29;20039;-79
2022/06/26 13:47:15;;;;;;;0.90;0.30;;;45.70;44.50;;;;;;4941990;29;20406;-78
2022/06/26 13:49:44;;;;;;;0.40;0.20;;;45.60;44.20;;;;;;4947240;29;20032;-78
2022/06/26 13:52:12;;;;;;;0.98;0.20;;;45.10;44.80;;;;;;4946377;29;20313;-78
2022/06/26 13:54:38;;;;;;;1.35;0.40;;;45.70;43.80;;;;;;4947237;29;20042;-80
2022/06/26 13:57:05;;;;;;;0.83;0.30;;;46.30;44.10;;;;;;4929894;29;20294;-78
2022/06/26 13:59:31;;;;;;;0.82;0.30;;;46.40;43.50;;;;;;4930528;29;20073;-79
2022/06/26 14:01:57;;;;;;;0.50;0.22;;;46.50;43.70;;;;;;4952721;29;20060;-79
2022/06/26 14:04:23;;;;;;;0.60;0.30;;;47.70;43.70;;;;;;4958993;29;20035;-77
2022/06/26 14:06:49;;;;;;;1.38;0.30;;;48.10;42.70;;;;;;4935881;29;20285;-77
2022/06/26 14:09:15;;;;;;;0.80;0.27;;;47.80;42.50;;;;;;4944241;29;20099;-79
2022/06/26 14:11:41;;;;;;;0.93;0.35;;;47.20;42.70;;;;;;4928879;29;20463;-78
2022/06/26 14:14:06;;;;;;;1.08;0.50;;;47.40;42.70;;;;;;4946569;29;20234;-77
2022/06/26 14:16:32;;;;;;;0.63;0.30;;;47.40;43.00;;;;;;4929286;29;20039;-78
2022/06/26 14:18:58;;;;;;;1.50;0.30;;;47.50;42.80;;;;;;4922920;29;20043;-78
2022/06/26 14:21:24;;;;;;;0.83;0.30;;;48.10;42.60;;;;;;4929532;29;20040;-80
2022/06/26 14:26:34;;;;;;;1.55;0.30;;;49.00;41.50;;;;;;4935802;29;20036;-78
2022/06/26 14:29:00;;;;;;;0.97;0.40;;;48.80;41.60;;;;;;4941625;29;20340;-78
2022/06/26 14:31:28;;;;;;;0.43;0.20;;;49.20;41.50;;;;;;4928628;29;20389;-81
2022/06/26 14:33:54;;;;;;;1.60;0.30;;;49.50;41.50;;;;;;4929201;29;20028;-77
2022/06/26 14:36:20;;;;;;;0.87;0.40;;;50.40;40.90;;;;;;4928978;29;20382;-77
2022/06/26 14:38:46;;;;;;;1.83;0.40;;;50.10;40.30;;;;;;4946425;29;20019;-79
2022/06/26 14:41:12;;;;;;;1.85;0.30;;;50.10;40.60;;;;;;4928853;29;20039;-79
2022/06/26 14:43:38;;;;;;;0.93;0.40;;;50.40;40.50;;;;;;4946247;29;20073;-82
2022/06/26 14:46:16;;;;;;;1.00;0.40;;;50.00;40.70;;;;;;4928369;29;20063;-81
2022/06/26 14:48:42;;;;;;;1.48;1.10;;;50.60;40.50;;;;;;4927210;29;20459;-80
2022/06/26 14:51:11;;;;;;;1.20;0.50;;;50.10;40.50;;;;;;4935222;29;20032;-80
2022/06/26 14:53:36;;;;;;;1.23;0.38;;;49.50;40.90;;;;;;4909712;29;20036;-83
2022/06/26 14:56:02;;;;;;;0.80;0.40;;;48.90;41.10;;;;;;4937821;29;20116;-79
2022/06/26 14:58:28;;;;;;;0.53;0.30;;;48.80;41.70;;;;;;4944041;29;20155;-80
2022/06/26 15:00:55;;;;;;;0.90;0.20;;;49.30;41.40;;;;;;4943362;29;20230;-81
2022/06/26 15:03:22;;;;;;;0.70;0.30;;;49.80;41.00;;;;;;4942575;29;20122;-77
2022/06/26 15:05:49;;;;;;;0.77;0.30;;;50.30;40.80;;;;;;4943329;29;20047;-78
2022/06/26 15:08:14;;;;;;;1.50;0.30;;;50.30;40.50;;;;;;4942421;29;20036;-80
2022/06/26 15:10:40;;;;;;;1.47;0.40;;;50.80;40.90;;;;;;4925525;29;20067;-79
2022/06/26 15:13:06;;;;;;;0.88;0.40;;;50.90;40.40;;;;;;4926867;29;20059;-79
2022/06/26 15:15:32;;;;;;;1.60;0.50;;;51.40;41.10;;;;;;4942128;29;20036;-79
2022/06/26 15:18:00;;;;;;;0.93;0.50;;;51.40;39.90;;;;;;4926991;29;20542;-79
2022/06/26 15:20:26;;;;;;;1.63;0.40;;;51.60;40.00;;;;;;4942549;29;20443;-80
2022/06/26 15:22:55;;;;;;;0.70;0.40;;;51.30;40.00;;;;;;4904574;29;20096;-79
2022/06/26 15:25:21;;;;;;;1.00;0.50;;;50.70;40.40;;;;;;4904535;29;20064;-79
2022/06/26 15:27:47;;;;;;;0.90;0.40;;;48.90;40.70;;;;;;4889561;29;20357;-80
2022/06/26 15:30:13;;;;;;;1.03;0.30;;;48.60;41.50;;;;;;4881183;29;20052;-78
2022/06/26 15:32:38;;;;;;;1.30;0.50;;;48.40;41.30;;;;;;4886268;29;20049;-81
2022/06/26 15:35:04;;;;;;;0.77;0.37;;;48.60;41.20;;;;;;4885892;29;20104;-77
2022/06/26 15:37:30;;;;;;;0.93;0.50;;;49.20;41.40;;;;;;4886121;29;20057;-81
2022/06/26 15:39:56;;;;;;;1.40;0.30;;;49.70;40.60;;;;;;4886092;29;20037;-78
2022/06/26 15:42:22;;;;;;;1.23;0.40;;;49.80;40.70;;;;;;4888714;29;20049;-79
2022/06/26 15:44:48;;;;;;;0.70;0.40;;;49.70;40.80;;;;;;4890788;29;20231;-81
2022/06/26 15:47:14;;;;;;;3.30;0.50;;;49.80;40.70;;;;;;4886972;29;20045;-79
2022/06/26 15:49:40;;;;;;;1.87;0.50;;;49.70;40.40;;;;;;4886695;29;20028;-79
2022/06/26 15:52:06;;;;;;;1.70;0.60;;;49.40;40.90;;;;;;4884773;29;20045;-78
2022/06/26 15:54:31;;;;;;;0.77;0.40;;;49.80;40.60;;;;;;4917216;29;20047;-80
2022/06/26 15:56:57;;;;;;;4.63;0.50;;;50.70;40.50;;;;;;4944098;29;20059;-79
2022/06/26 15:59:29;;;;;;;1.03;0.60;;;50.70;39.90;;;;;;4943759;29;20043;-81
2022/06/26 16:01:54;;;;;;;0.60;0.40;;;50.30;40.40;;;;;;4904839;29;1127046;-80
2022/06/26 16:04:20;;;;;;;0.77;0.30;;;50.30;40.20;;;;;;4944345;29;20083;-79
2022/06/26 16:06:46;;;;;;;1.80;0.50;;;49.60;40.00;;;;;;4944765;29;20035;-79
2022/06/26 16:09:12;;;;;;;1.30;0.40;;;49.00;40.70;;;;;;4944105;29;20053;-79
2022/06/26 16:11:38;;;;;;;0.87;0.30;;;49.00;41.20;;;;;;4922510;29;20095;-79
2022/06/26 16:14:04;;;;;;;2.13;0.45;;;48.70;41.40;;;;;;4944606;29;20035;-79
2022/06/26 16:16:30;;;;;;;2.70;0.82;;;48.80;41.20;;;;;;4943954;29;20055;-78
2022/06/26 16:18:56;;;;;;;0.97;0.30;;;49.20;40.90;;;;;;4935863;29;20078;-78
2022/06/26 16:21:21;;;;;;;1.70;0.30;;;49.70;40.60;;;;;;4944206;29;20027;-79
2022/06/26 16:26:32;;;;;;;1.23;0.50;;;49.30;40.80;;;;;;4944205;29;20055;-79
2022/06/26 16:29:00;;;;;;;0.80;0.30;;;49.90;40.40;;;;;;4927325;29;20044;-79
2022/06/26 16:31:27;;;;;;;2.85;0.50;;;49.80;40.20;;;;;;4942951;29;20047;-77
2022/06/26 16:33:54;;;;;;;1.08;0.50;;;49.70;40.10;;;;;;4926063;29;20050;-79
2022/06/26 16:36:21;;;;;;;0.80;0.32;;;49.60;40.20;;;;;;4948190;29;20042;-80
2022/06/26 16:38:48;;;;;;;0.93;0.40;;;49.30;40.10;;;;;;4948348;29;20042;-80
2022/06/26 16:41:13;;;;;;;2.47;0.47;;;49.10;40.50;;;;;;4931001;29;20039;-80
2022/06/26 16:43:39;;;;;;;0.98;0.50;;;49.00;40.50;;;;;;4948399;29;20113;-80
2022/06/26 16:46:06;;;;;;;2.28;0.40;;;48.70;41.00;;;;;;4947718;29;20310;-80
2022/06/26 16:48:32;;;;;;;1.35;0.40;;;48.70;41.50;;;;;;4948398;29;20047;-79
2022/06/26 16:50:59;;;;;;;1.37;0.43;;;49.00;40.90;;;;;;4914460;29;20040;-77
2022/06/26 16:53:25;;;;;;;1.33;0.60;;;49.10;40.70;;;;;;4930144;29;20491;-79
2022/06/26 16:55:51;;;;;;;1.52;0.43;;;48.80;40.80;;;;;;4948178;29;20213;-79
2022/06/26 16:58:18;;;;;;;1.40;0.50;;;48.90;40.70;;;;;;4947695;29;20044;-78
2022/06/26 17:00:45;;;;;;;1.63;0.40;;;48.70;40.50;;;;;;4947637;29;20031;-79
2022/06/26 17:03:12;;;;;;;2.35;0.40;;;48.60;40.90;;;;;;4947567;29;20043;-80
2022/06/26 17:05:40;;;;;;;1.15;0.50;;;48.20;41.00;;;;;;4948280;29;20055;-79
2022/06/26 17:08:21;;;;;;;1.23;0.50;;;47.60;41.30;;;;;;4947364;29;20031;-86
2022/06/26 17:10:47;;;;;;;1.05;0.47;;;47.60;41.70;;;;;;4942874;29;20031;-81
2022/06/26 17:13:13;;;;;;;3.17;0.50;;;47.00;41.90;;;;;;4922398;29;20028;-79
2022/06/26 17:15:41;;;;;;;1.55;0.40;;;47.00;42.20;;;;;;4938089;28;20065;-80
2022/06/26 17:18:08;;;;;;;0.82;0.40;;;46.50;42.40;;;;;;4901547;29;20043;-84
2022/06/26 17:20:35;;;;;;;1.15;0.50;;;46.50;42.70;;;;;;4946275;29;20059;-80
2022/06/26 17:23:01;;;;;;;;;;;47.00;42.50;;;;;;4944386;29;20038;-78
2022/06/26 17:25:27;;;;;;;0.95;0.40;;;46.80;42.20;;;;;;4923143;29;19946;-81
2022/06/26 17:27:52;;;;;;;1.88;0.45;;;46.00;43.10;;;;;;4945987;29;20023;-79
2022/06/26 17:30:19;;;;;;;1.30;0.50;;;46.00;42.60;;;;;;4927852;28;20050;-82
2022/06/26 17:32:45;;;;;;;1.17;0.45;;;46.30;42.50;;;;;;4946635;29;20483;-82
2022/06/26 17:35:10;;;;;;;0.88;0.40;;;45.70;43.10;;;;;;4938408;29;20035;-78
2022/06/26 17:37:37;;;;;;;1.05;0.52;;;44.90;43.50;;;;;;4935421;29;20051;-79
2022/06/26 17:40:05;;;;;;;1.80;0.60;;;45.20;43.50;;;;;;4928649;29;20060;-81
2022/06/26 17:42:31;;;;;;;0.90;0.30;;;45.30;43.50;;;;;;4945557;29;20036;-77
2022/06/26 17:44:57;;;;;;;1.67;0.60;;;44.60;43.90;;;;;;4945913;29;20026;-80
2022/06/26 17:50:07;;;;;;;1.83;0.40;;;44.30;44.20;;;;;;4929625;29;20514;-80
2022/06/26 17:52:33;;;;;;;2.35;0.60;;;45.00;44.10;;;;;;4945771;29;20250;-79
2022/06/26 17:54:59;;;;;;;2.03;0.85;;;45.10;43.80;;;;;;4946361;29;20027;-79
2022/06/26 17:57:24;;;;;;;1.42;0.60;;;44.90;43.80;;;;;;4929146;29;20063;-81
2022/06/26 17:59:50;;;;;;;1.05;0.50;;;44.90;44.00;;;;;;4946258;29;20079;-80
2022/06/26 18:02:16;;;;;;;2.63;0.85;;;44.00;44.20;;;;;;4948242;29;20115;-80
2022/06/26 18:04:41;;;;;;;2.70;1.10;;;43.20;45.30;;;;;;4951262;29;20026;-81
2022/06/26 18:07:12;;;;;;;0.90;0.50;;;42.00;46.40;;;;;;4933038;29;20106;-81
2022/06/26 18:09:42;;;;;;;1.40;0.70;;;41.00;47.60;;;;;;4932161;29;20046;-80
2022/06/26 18:12:12;;;;;;;2.53;0.60;;;39.50;48.90;;;;;;4930676;29;20138;-80
2022/06/26 18:14:38;;;;;;;1.90;0.80;;;38.00;50.60;;;;;;4947504;29;20028;-80
2022/06/26 18:17:05;;;;;;;1.88;0.95;;;37.20;51.60;;;;;;4929748;29;20036;-80
2022/06/26 18:19:55;;;;;;;3.20;2.10;;;36.20;52.80;;;;;;4939184;29;20298;-81